Prairie Du Sac, Wisconsin
Current Conditions -  °F | °C
As of 2:35 AM on Tuesday 27 Jan 2015 (Local Time) from KC29 Reporting Station
Overcast Overcast  
Wind Chill: 21°   Ceiling: 600
Heat Index: 26°   Visibility: 7mi
Dew Point: 25°   Wind: 5mph
Humidity: 94%   Direction: 340°NNW
Pressure: 29.98"   Gusts: NA
Location:  43.29°N, 89.72°W
Report Text: KC29 270835Z AUTO 34004KT 7SM OVC006 M03/M04 A2998 RMK AO1 T10311040
Loading
Personal Weather Stations






























Interactive Weather Map New forecast layout! Learn more

10-Day Weather Forecast

Advertisements
Track Severe Weather on mobile